sensor_id;sensor_type;location;lat;lon;timestamp;temperature;humidity
72762;SHT30;60886;55.034;73.150;2024-01-16T00:00:46;-21.92;75.26
72762;SHT30;60886;55.034;73.150;2024-01-16T00:04:16;-21.86;75.77
72762;SHT30;60886;55.034;73.150;2024-01-16T00:07:18;-21.79;75.77
72762;SHT30;60886;55.034;73.150;2024-01-16T00:10:28;-21.79;75.61
72762;SHT30;60886;55.034;73.150;2024-01-16T00:13:38;-21.81;75.59
72762;SHT30;60886;55.034;73.150;2024-01-16T00:16:44;-21.83;75.55
72762;SHT30;60886;55.034;73.150;2024-01-16T00:19:49;-21.88;75.24
72762;SHT30;60886;55.034;73.150;2024-01-16T00:23:11;-21.85;75.42
72762;SHT30;60886;55.034;73.150;2024-01-16T00:26:28;-21.79;75.72
72762;SHT30;60886;55.034;73.150;2024-01-16T00:29:31;-21.78;75.79
72762;SHT30;60886;55.034;73.150;2024-01-16T00:32:42;-21.93;75.24
72762;SHT30;60886;55.034;73.150;2024-01-16T00:35:50;-21.86;75.64
72762;SHT30;60886;55.034;73.150;2024-01-16T00:39:13;-21.83;75.91
72762;SHT30;60886;55.034;73.150;2024-01-16T00:42:14;-21.78;76.15
72762;SHT30;60886;55.034;73.150;2024-01-16T00:45:35;-21.81;75.73
72762;SHT30;60886;55.034;73.150;2024-01-16T00:49:05;-21.82;75.87
72762;SHT30;60886;55.034;73.150;2024-01-16T00:52:35;-21.75;76.20
72762;SHT30;60886;55.034;73.150;2024-01-16T00:59:27;-21.67;75.95
72762;SHT30;60886;55.034;73.150;2024-01-16T01:02:45;-21.71;75.64
72762;SHT30;60886;55.034;73.150;2024-01-16T01:05:48;-21.64;75.57
72762;SHT30;60886;55.034;73.150;2024-01-16T01:09:19;-21.64;75.48
72762;SHT30;60886;55.034;73.150;2024-01-16T01:12:28;-21.58;75.70
72762;SHT30;60886;55.034;73.150;2024-01-16T01:15:30;-21.53;75.65
72762;SHT30;60886;55.034;73.150;2024-01-16T01:18:50;-21.51;75.32
72762;SHT30;60886;55.034;73.150;2024-01-16T01:22:04;-21.54;75.32
72762;SHT30;60886;55.034;73.150;2024-01-16T01:25:21;-21.59;75.09
72762;SHT30;60886;55.034;73.150;2024-01-16T01:28:49;-21.64;75.09
72762;SHT30;60886;55.034;73.150;2024-01-16T01:35:23;-21.74;75.01
72762;SHT30;60886;55.034;73.150;2024-01-16T01:39:04;-21.72;75.23
72762;SHT30;60886;55.034;73.150;2024-01-16T01:42:15;-21.78;75.04
72762;SHT30;60886;55.034;73.150;2024-01-16T01:45:25;-21.83;75.00
72762;SHT30;60886;55.034;73.150;2024-01-16T01:48:40;-21.74;75.38
72762;SHT30;60886;55.034;73.150;2024-01-16T01:52:06;-21.81;75.24
72762;SHT30;60886;55.034;73.150;2024-01-16T01:55:27;-21.79;75.34
72762;SHT30;60886;55.034;73.150;2024-01-16T01:58:38;-21.81;75.56
72762;SHT30;60886;55.034;73.150;2024-01-16T02:01:48;-21.86;75.23
72762;SHT30;60886;55.034;73.150;2024-01-16T02:04:58;-21.77;75.51
72762;SHT30;60886;55.034;73.150;2024-01-16T02:07:59;-21.71;75.73
72762;SHT30;60886;55.034;73.150;2024-01-16T02:11:21;-21.72;75.46
72762;SHT30;60886;55.034;73.150;2024-01-16T02:14:31;-21.78;75.03
72762;SHT30;60886;55.034;73.150;2024-01-16T02:17:41;-21.79;75.09
72762;SHT30;60886;55.034;73.150;2024-01-16T02:21:22;-21.81;75.22
72762;SHT30;60886;55.034;73.150;2024-01-16T02:24:32;-21.74;75.55
72762;SHT30;60886;55.034;73.150;2024-01-16T02:27:56;-21.71;75.59
72762;SHT30;60886;55.034;73.150;2024-01-16T02:31:43;-21.74;75.46
72762;SHT30;60886;55.034;73.150;2024-01-16T02:34:54;-21.71;75.36
72762;SHT30;60886;55.034;73.150;2024-01-16T02:38:24;-21.69;75.27
72762;SHT30;60886;55.034;73.150;2024-01-16T02:41:43;-21.65;75.43
72762;SHT30;60886;55.034;73.150;2024-01-16T02:44:54;-21.74;75.03
72762;SHT30;60886;55.034;73.150;2024-01-16T02:48:05;-21.75;75.04
72762;SHT30;60886;55.034;73.150;2024-01-16T02:51:25;-21.83;74.99
72762;SHT30;60886;55.034;73.150;2024-01-16T02:54:27;-21.82;75.05
72762;SHT30;60886;55.034;73.150;2024-01-16T02:57:47;-21.86;75.03
72762;SHT30;60886;55.034;73.150;2024-01-16T03:01:15;-21.91;75.28
72762;SHT30;60886;55.034;73.150;2024-01-16T03:04:37;-21.91;75.36
72762;SHT30;60886;55.034;73.150;2024-01-16T03:07:48;-21.92;75.13
72762;SHT30;60886;55.034;73.150;2024-01-16T03:10:50;-21.93;75.04
72762;SHT30;60886;55.034;73.150;2024-01-16T03:13:59;-21.86;75.42
72762;SHT30;60886;55.034;73.150;2024-01-16T03:20:33;-21.79;75.18
72762;SHT30;60886;55.034;73.150;2024-01-16T03:24:00;-21.91;74.84
72762;SHT30;60886;55.034;73.150;2024-01-16T03:27:05;-21.85;75.03
72762;SHT30;60886;55.034;73.150;2024-01-16T03:30:07;-21.85;75.24
72762;SHT30;60886;55.034;73.150;2024-01-16T03:33:15;-21.88;74.76
72762;SHT30;60886;55.034;73.150;2024-01-16T03:36:23;-21.91;74.65
72762;SHT30;60886;55.034;73.150;2024-01-16T03:39:31;-21.92;74.67
72762;SHT30;60886;55.034;73.150;2024-01-16T03:42:34;-21.82;74.84
72762;SHT30;60886;55.034;73.150;2024-01-16T03:45:36;-21.74;74.81
72762;SHT30;60886;55.034;73.150;2024-01-16T03:48:43;-21.72;75.01
72762;SHT30;60886;55.034;73.150;2024-01-16T03:51:51;-21.65;74.69
72762;SHT30;60886;55.034;73.150;2024-01-16T03:58:35;-21.58;74.33
72762;SHT30;60886;55.034;73.150;2024-01-16T04:01:45;-21.54;74.33
72762;SHT30;60886;55.034;73.150;2024-01-16T04:05:04;-21.55;74.00
72762;SHT30;60886;55.034;73.150;2024-01-16T04:08:13;-21.61;73.58
72762;SHT30;60886;55.034;73.150;2024-01-16T04:11:15;-21.61;73.77
72762;SHT30;60886;55.034;73.150;2024-01-16T04:14:24;-21.59;74.32
72762;SHT30;60886;55.034;73.150;2024-01-16T04:17:26;-21.64;74.56
72762;SHT30;60886;55.034;73.150;2024-01-16T04:20:27;-21.61;74.71
72762;SHT30;60886;55.034;73.150;2024-01-16T04:23:35;-21.59;74.63
72762;SHT30;60886;55.034;73.150;2024-01-16T04:26:46;-21.57;74.64
72762;SHT30;60886;55.034;73.150;2024-01-16T04:29:53;-21.38;74.74
72762;SHT30;60886;55.034;73.150;2024-01-16T04:33:01;-21.36;74.25
72762;SHT30;60886;55.034;73.150;2024-01-16T04:36:13;-21.22;74.45
72762;SHT30;60886;55.034;73.150;2024-01-16T04:39:22;-21.13;74.05
72762;SHT30;60886;55.034;73.150;2024-01-16T04:42:32;-21.06;73.70
72762;SHT30;60886;55.034;73.150;2024-01-16T04:45:36;-21.03;73.30
72762;SHT30;60886;55.034;73.150;2024-01-16T04:48:37;-20.89;73.55
72762;SHT30;60886;55.034;73.150;2024-01-16T04:51:39;-20.86;73.18
72762;SHT30;60886;55.034;73.150;2024-01-16T04:54:43;-20.99;72.47
72762;SHT30;60886;55.034;73.150;2024-01-16T04:57:46;-21.14;72.54
72762;SHT30;60886;55.034;73.150;2024-01-16T05:01:02;-21.10;73.15
72762;SHT30;60886;55.034;73.150;2024-01-16T05:04:11;-20.96;73.35
72762;SHT30;60886;55.034;73.150;2024-01-16T05:07:19;-20.86;72.92
72762;SHT30;60886;55.034;73.150;2024-01-16T05:10:30;-20.72;73.09
72762;SHT30;60886;55.034;73.150;2024-01-16T05:13:45;-20.65;72.67
72762;SHT30;60886;55.034;73.150;2024-01-16T05:17:12;-20.62;72.29
72762;SHT30;60886;55.034;73.150;2024-01-16T05:20:15;-20.69;71.89
72762;SHT30;60886;55.034;73.150;2024-01-16T05:23:16;-20.58;72.17
72762;SHT30;60886;55.034;73.150;2024-01-16T05:26:26;-20.48;72.06
72762;SHT30;60886;55.034;73.150;2024-01-16T05:29:53;-20.44;71.66
72762;SHT30;60886;55.034;73.150;2024-01-16T05:33:00;-20.41;71.68
72762;SHT30;60886;55.034;73.150;2024-01-16T05:36:02;-20.34;71.79
72762;SHT30;60886;55.034;73.150;2024-01-16T05:39:05;-20.30;71.94
72762;SHT30;60886;55.034;73.150;2024-01-16T05:42:08;-20.34;72.00
72762;SHT30;60886;55.034;73.150;2024-01-16T05:45:09;-20.21;72.31
72762;SHT30;60886;55.034;73.150;2024-01-16T05:48:11;-20.24;71.78
72762;SHT30;60886;55.034;73.150;2024-01-16T05:51:12;-20.17;72.03
72762;SHT30;60886;55.034;73.150;2024-01-16T05:54:20;-20.02;72.01
72762;SHT30;60886;55.034;73.150;2024-01-16T05:57:34;-19.85;71.87
72762;SHT30;60886;55.034;73.150;2024-01-16T06:00:42;-19.78;71.35
72762;SHT30;60886;55.034;73.150;2024-01-16T06:07:08;-19.62;71.24
72762;SHT30;60886;55.034;73.150;2024-01-16T06:10:16;-19.45;71.19
72762;SHT30;60886;55.034;73.150;2024-01-16T06:13:26;-19.36;70.56
72762;SHT30;60886;55.034;73.150;2024-01-16T06:16:38;-19.51;70.07
72762;SHT30;60886;55.034;73.150;2024-01-16T06:19:46;-19.55;70.21
72762;SHT30;60886;55.034;73.150;2024-01-16T06:22:48;-19.41;70.65
72762;SHT30;60886;55.034;73.150;2024-01-16T06:26:00;-19.39;70.19
72762;SHT30;60886;55.034;73.150;2024-01-16T06:29:09;-19.32;70.31
72762;SHT30;60886;55.034;73.150;2024-01-16T06:32:19;-19.51;70.02
72762;SHT30;60886;55.034;73.150;2024-01-16T06:35:28;-19.42;70.57
72762;SHT30;60886;55.034;73.150;2024-01-16T06:38:41;-19.42;70.38
72762;SHT30;60886;55.034;73.150;2024-01-16T06:41:57;-19.21;70.70
72762;SHT30;60886;55.034;73.150;2024-01-16T06:44:59;-19.27;70.14
72762;SHT30;60886;55.034;73.150;2024-01-16T06:48:13;-19.31;70.21
72762;SHT30;60886;55.034;73.150;2024-01-16T06:51:28;-19.25;70.41
72762;SHT30;60886;55.034;73.150;2024-01-16T06:54:30;-19.07;70.66
72762;SHT30;60886;55.034;73.150;2024-01-16T06:57:46;-18.84;70.31
72762;SHT30;60886;55.034;73.150;2024-01-16T07:00:52;-18.80;69.72
72762;SHT30;60886;55.034;73.150;2024-01-16T07:04:01;-18.88;69.48
72762;SHT30;60886;55.034;73.150;2024-01-16T07:07:11;-18.76;69.64
72762;SHT30;60886;55.034;73.150;2024-01-16T07:10:42;-18.73;69.41
72762;SHT30;60886;55.034;73.150;2024-01-16T07:13:44;-18.65;69.38
72762;SHT30;60886;55.034;73.150;2024-01-16T07:16:52;-18.48;69.68
72762;SHT30;60886;55.034;73.150;2024-01-16T07:20:00;-18.45;69.22
72762;SHT30;60886;55.034;73.150;2024-01-16T07:23:04;-18.35;69.16
72762;SHT30;60886;55.034;73.150;2024-01-16T07:26:17;-18.24;69.05
72762;SHT30;60886;55.034;73.150;2024-01-16T07:29:22;-18.26;68.34
72762;SHT30;60886;55.034;73.150;2024-01-16T07:32:33;-18.25;68.72
72762;SHT30;60886;55.034;73.150;2024-01-16T07:35:53;-18.56;68.35
72762;SHT30;60886;55.034;73.150;2024-01-16T07:39:01;-18.62;69.08
72762;SHT30;60886;55.034;73.150;2024-01-16T07:42:09;-18.41;69.88
72762;SHT30;60886;55.034;73.150;2024-01-16T07:45:15;-18.25;69.36
72762;SHT30;60886;55.034;73.150;2024-01-16T07:48:31;-18.11;68.91
72762;SHT30;60886;55.034;73.150;2024-01-16T07:51:38;-18.10;68.81
72762;SHT30;60886;55.034;73.150;2024-01-16T07:54:39;-18.07;69.12
72762;SHT30;60886;55.034;73.150;2024-01-16T07:57:54;-17.84;68.91
72762;SHT30;60886;55.034;73.150;2024-01-16T08:01:11;-17.83;68.56
72762;SHT30;60886;55.034;73.150;2024-01-16T08:07:44;-17.83;68.60
72762;SHT30;60886;55.034;73.150;2024-01-16T08:10:46;-17.71;68.62
72762;SHT30;60886;55.034;73.150;2024-01-16T08:17:27;-17.50;68.01
72762;SHT30;60886;55.034;73.150;2024-01-16T08:20:47;-17.57;67.99
72762;SHT30;60886;55.034;73.150;2024-01-16T08:23:55;-17.53;67.94
72762;SHT30;60886;55.034;73.150;2024-01-16T08:27:03;-17.59;68.00
72762;SHT30;60886;55.034;73.150;2024-01-16T08:30:09;-17.49;68.09
72762;SHT30;60886;55.034;73.150;2024-01-16T08:33:26;-17.29;68.26
72762;SHT30;60886;55.034;73.150;2024-01-16T08:36:37;-17.32;67.53
72762;SHT30;60886;55.034;73.150;2024-01-16T08:39:53;-17.53;67.08
72762;SHT30;60886;55.034;73.150;2024-01-16T08:42:58;-17.52;67.64
72762;SHT30;60886;55.034;73.150;2024-01-16T08:46:06;-17.50;67.99
72762;SHT30;60886;55.034;73.150;2024-01-16T08:49:14;-17.39;68.12
72762;SHT30;60886;55.034;73.150;2024-01-16T08:52:19;-17.35;67.79
72762;SHT30;60886;55.034;73.150;2024-01-16T08:55:38;-17.39;67.61
72762;SHT30;60886;55.034;73.150;2024-01-16T08:58:47;-17.35;67.79
72762;SHT30;60886;55.034;73.150;2024-01-16T09:02:01;-17.45;67.42
72762;SHT30;60886;55.034;73.150;2024-01-16T09:05:09;-17.50;67.64
72762;SHT30;60886;55.034;73.150;2024-01-16T09:08:17;-17.35;68.04
72762;SHT30;60886;55.034;73.150;2024-01-16T09:11:26;-17.32;67.44
72762;SHT30;60886;55.034;73.150;2024-01-16T09:14:47;-17.31;67.42
72762;SHT30;60886;55.034;73.150;2024-01-16T09:18:21;-17.35;67.32
72762;SHT30;60886;55.034;73.150;2024-01-16T09:21:29;-17.42;67.28
72762;SHT30;60886;55.034;73.150;2024-01-16T09:24:52;-17.38;67.48
72762;SHT30;60886;55.034;73.150;2024-01-16T09:28:13;-17.42;67.43
72762;SHT30;60886;55.034;73.150;2024-01-16T09:31:15;-17.35;67.64
72762;SHT30;60886;55.034;73.150;2024-01-16T09:34:17;-17.35;67.56
72762;SHT30;60886;55.034;73.150;2024-01-16T09:37:25;-17.40;67.56
72762;SHT30;60886;55.034;73.150;2024-01-16T09:40:33;-17.43;67.39
72762;SHT30;60886;55.034;73.150;2024-01-16T09:43:44;-17.45;67.61
72762;SHT30;60886;55.034;73.150;2024-01-16T09:46:55;-17.46;67.52
72762;SHT30;60886;55.034;73.150;2024-01-16T09:50:10;-17.50;67.49
72762;SHT30;60886;55.034;73.150;2024-01-16T09:53:13;-17.69;67.20
72762;SHT30;60886;55.034;73.150;2024-01-16T09:56:18;-17.80;67.65
72762;SHT30;60886;55.034;73.150;2024-01-16T09:59:36;-17.73;68.14
72762;SHT30;60886;55.034;73.150;2024-01-16T10:02:44;-17.84;67.88
72762;SHT30;60886;55.034;73.150;2024-01-16T10:05:52;-17.90;67.77
72762;SHT30;60886;55.034;73.150;2024-01-16T10:08:58;-17.93;67.98
72762;SHT30;60886;55.034;73.150;2024-01-16T10:12:15;-17.93;68.24
72762;SHT30;60886;55.034;73.150;2024-01-16T10:19:09;-18.04;68.10
72762;SHT30;60886;55.034;73.150;2024-01-16T10:22:21;-18.12;68.18
72762;SHT30;60886;55.034;73.150;2024-01-16T10:25:27;-18.20;68.16
72762;SHT30;60886;55.034;73.150;2024-01-16T10:28:40;-18.28;68.21
72762;SHT30;60886;55.034;73.150;2024-01-16T10:31:48;-18.33;68.58
72762;SHT30;60886;55.034;73.150;2024-01-16T10:38:09;-18.39;68.66
72762;SHT30;60886;55.034;73.150;2024-01-16T10:41:15;-18.51;68.57
72762;SHT30;60886;55.034;73.150;2024-01-16T10:44:53;-18.66;68.84
72762;SHT30;60886;55.034;73.150;2024-01-16T10:48:12;-18.72;69.05
72762;SHT30;60886;55.034;73.150;2024-01-16T10:51:21;-18.77;69.33
72762;SHT30;60886;55.034;73.150;2024-01-16T10:54:23;-18.76;69.55
72762;SHT30;60886;55.034;73.150;2024-01-16T10:57:51;-18.80;69.79
72762;SHT30;60886;55.034;73.150;2024-01-16T11:01:15;-18.81;69.75
72762;SHT30;60886;55.034;73.150;2024-01-16T11:04:31;-18.86;69.72
72762;SHT30;60886;55.034;73.150;2024-01-16T11:07:46;-18.94;69.82
72762;SHT30;60886;55.034;73.150;2024-01-16T11:10:55;-19.03;69.74
72762;SHT30;60886;55.034;73.150;2024-01-16T11:13:57;-19.08;69.95
72762;SHT30;60886;55.034;73.150;2024-01-16T11:17:14;-18.98;70.55
72762;SHT30;60886;55.034;73.150;2024-01-16T11:20:30;-18.97;70.41
72762;SHT30;60886;55.034;73.150;2024-01-16T11:23:33;-18.96;70.48
72762;SHT30;60886;55.034;73.150;2024-01-16T11:27:02;-18.98;70.41
72762;SHT30;60886;55.034;73.150;2024-01-16T11:30:30;-19.08;70.19
72762;SHT30;60886;55.034;73.150;2024-01-16T11:34:06;-19.12;70.57
72762;SHT30;60886;55.034;73.150;2024-01-16T11:37:26;-19.17;70.72
72762;SHT30;60886;55.034;73.150;2024-01-16T11:40:32;-19.24;70.48
72762;SHT30;60886;55.034;73.150;2024-01-16T11:43:40;-19.31;70.80
72762;SHT30;60886;55.034;73.150;2024-01-16T11:47:06;-19.31;70.88
72762;SHT30;60886;55.034;73.150;2024-01-16T11:50:12;-19.28;71.03
72762;SHT30;60886;55.034;73.150;2024-01-16T11:53:41;-19.32;71.03
72762;SHT30;60886;55.034;73.150;2024-01-16T12:00:28;-19.31;71.18
72762;SHT30;60886;55.034;73.150;2024-01-16T12:03:43;-19.28;71.15
72762;SHT30;60886;55.034;73.150;2024-01-16T12:06:59;-19.25;71.01
72762;SHT30;60886;55.034;73.150;2024-01-16T12:10:07;-19.27;70.94
72762;SHT30;60886;55.034;73.150;2024-01-16T12:13:17;-19.38;70.49
72762;SHT30;60886;55.034;73.150;2024-01-16T12:16:25;-19.43;70.80
72762;SHT30;60886;55.034;73.150;2024-01-16T12:19:33;-19.43;71.09
72762;SHT30;60886;55.034;73.150;2024-01-16T12:23:00;-19.43;71.23
72762;SHT30;60886;55.034;73.150;2024-01-16T12:26:27;-19.38;71.50
72762;SHT30;60886;55.034;73.150;2024-01-16T12:29:35;-19.34;71.52
72762;SHT30;60886;55.034;73.150;2024-01-16T12:32:37;-19.36;71.21
72762;SHT30;60886;55.034;73.150;2024-01-16T12:36:04;-19.38;71.35
72762;SHT30;60886;55.034;73.150;2024-01-16T12:39:09;-19.47;71.14
72762;SHT30;60886;55.034;73.150;2024-01-16T12:42:20;-19.52;71.15
72762;SHT30;60886;55.034;73.150;2024-01-16T12:45:28;-19.61;71.10
72762;SHT30;60886;55.034;73.150;2024-01-16T12:48:41;-19.57;71.39
72762;SHT30;60886;55.034;73.150;2024-01-16T12:51:44;-19.63;71.29
72762;SHT30;60886;55.034;73.150;2024-01-16T12:54:45;-19.69;71.22
72762;SHT30;60886;55.034;73.150;2024-01-16T12:58:14;-19.68;71.58
72762;SHT30;60886;55.034;73.150;2024-01-16T13:01:26;-19.66;71.80
72762;SHT30;60886;55.034;73.150;2024-01-16T13:04:47;-19.65;71.91
72762;SHT30;60886;55.034;73.150;2024-01-16T13:08:03;-19.66;71.78
72762;SHT30;60886;55.034;73.150;2024-01-16T13:11:15;-19.71;71.78
72762;SHT30;60886;55.034;73.150;2024-01-16T13:14:23;-19.66;72.07
72762;SHT30;60886;55.034;73.150;2024-01-16T13:17:26;-19.69;72.45
72762;SHT30;60886;55.034;73.150;2024-01-16T13:20:27;-19.68;72.45
72762;SHT30;60886;55.034;73.150;2024-01-16T13:26:54;-19.71;72.24
72762;SHT30;60886;55.034;73.150;2024-01-16T13:30:24;-19.69;72.24
72762;SHT30;60886;55.034;73.150;2024-01-16T13:33:26;-19.69;72.14
72762;SHT30;60886;55.034;73.150;2024-01-16T13:36:37;-19.79;71.90
72762;SHT30;60886;55.034;73.150;2024-01-16T13:39:45;-19.82;72.05
72762;SHT30;60886;55.034;73.150;2024-01-16T13:42:53;-19.79;72.28
72762;SHT30;60886;55.034;73.150;2024-01-16T13:46:01;-19.81;72.55
72762;SHT30;60886;55.034;73.150;2024-01-16T13:49:13;-19.71;72.75
72762;SHT30;60886;55.034;73.150;2024-01-16T13:52:19;-19.73;72.51
72762;SHT30;60886;55.034;73.150;2024-01-16T13:58:44;-19.73;73.00
72762;SHT30;60886;55.034;73.150;2024-01-16T14:01:53;-19.75;73.11
72762;SHT30;60886;55.034;73.150;2024-01-16T14:05:01;-19.85;72.92
72762;SHT30;60886;55.034;73.150;2024-01-16T14:08:09;-19.81;73.12
72762;SHT30;60886;55.034;73.150;2024-01-16T14:11:21;-19.83;72.73
72762;SHT30;60886;55.034;73.150;2024-01-16T14:14:30;-19.83;72.76
72762;SHT30;60886;55.034;73.150;2024-01-16T14:17:33;-19.83;72.90
72762;SHT30;60886;55.034;73.150;2024-01-16T14:20:49;-19.83;73.09
72762;SHT30;60886;55.034;73.150;2024-01-16T14:23:58;-19.93;72.80
72762;SHT30;60886;55.034;73.150;2024-01-16T14:27:42;-19.93;73.02
72762;SHT30;60886;55.034;73.150;2024-01-16T14:30:52;-19.96;73.02
72762;SHT30;60886;55.034;73.150;2024-01-16T14:34:02;-20.03;73.06
72762;SHT30;60886;55.034;73.150;2024-01-16T14:37:12;-19.95;73.37
72762;SHT30;60886;55.034;73.150;2024-01-16T14:40:22;-20.05;73.04
72762;SHT30;60886;55.034;73.150;2024-01-16T14:43:29;-19.97;73.51
72762;SHT30;60886;55.034;73.150;2024-01-16T14:46:37;-20.00;73.32
72762;SHT30;60886;55.034;73.150;2024-01-16T14:49:42;-20.05;73.28
72762;SHT30;60886;55.034;73.150;2024-01-16T14:52:58;-20.03;73.38
72762;SHT30;60886;55.034;73.150;2024-01-16T14:56:08;-20.05;73.39
72762;SHT30;60886;55.034;73.150;2024-01-16T14:59:17;-20.03;73.46
72762;SHT30;60886;55.034;73.150;2024-01-16T15:02:26;-19.97;73.56
72762;SHT30;60886;55.034;73.150;2024-01-16T15:05:27;-19.96;73.46
72762;SHT30;60886;55.034;73.150;2024-01-16T15:08:40;-19.97;73.33
72762;SHT30;60886;55.034;73.150;2024-01-16T15:12:01;-19.97;73.39
72762;SHT30;60886;55.034;73.150;2024-01-16T15:15:08;-19.95;73.27
72762;SHT30;60886;55.034;73.150;2024-01-16T15:18:17;-19.92;73.28
72762;SHT30;60886;55.034;73.150;2024-01-16T15:21:27;-19.96;73.30
72762;SHT30;60886;55.034;73.150;2024-01-16T15:24:35;-20.06;73.16
72762;SHT30;60886;55.034;73.150;2024-01-16T15:31:05;-20.03;73.71
72762;SHT30;60886;55.034;73.150;2024-01-16T15:34:36;-20.05;73.68
72762;SHT30;60886;55.034;73.150;2024-01-16T15:37:46;-20.14;73.45
72762;SHT30;60886;55.034;73.150;2024-01-16T15:40:55;-20.13;73.59
72762;SHT30;60886;55.034;73.150;2024-01-16T15:44:00;-20.16;73.91
72762;SHT30;60886;55.034;73.150;2024-01-16T15:47:16;-20.10;74.08
72762;SHT30;60886;55.034;73.150;2024-01-16T15:50:18;-20.13;74.02
72762;SHT30;60886;55.034;73.150;2024-01-16T15:53:27;-20.10;74.05
72762;SHT30;60886;55.034;73.150;2024-01-16T15:56:37;-20.05;74.40
72762;SHT30;60886;55.034;73.150;2024-01-16T15:59:52;-19.96;74.37
72762;SHT30;60886;55.034;73.150;2024-01-16T16:02:57;-19.93;74.34
72762;SHT30;60886;55.034;73.150;2024-01-16T16:06:17;-19.96;74.05
72762;SHT30;60886;55.034;73.150;2024-01-16T16:09:19;-19.97;73.94
72762;SHT30;60886;55.034;73.150;2024-01-16T16:12:22;-19.93;74.19
72762;SHT30;60886;55.034;73.150;2024-01-16T16:15:42;-19.89;74.42
72762;SHT30;60886;55.034;73.150;2024-01-16T16:18:44;-19.93;74.16
72762;SHT30;60886;55.034;73.150;2024-01-16T16:21:47;-20.00;73.79
72762;SHT30;60886;55.034;73.150;2024-01-16T16:24:50;-19.99;74.41
72762;SHT30;60886;55.034;73.150;2024-01-16T16:27:51;-20.00;74.36
72762;SHT30;60886;55.034;73.150;2024-01-16T16:30:53;-20.03;74.49
72762;SHT30;60886;55.034;73.150;2024-01-16T16:33:54;-19.95;74.71
72762;SHT30;60886;55.034;73.150;2024-01-16T16:37:01;-19.93;74.81
72762;SHT30;60886;55.034;73.150;2024-01-16T16:40:02;-19.87;74.89
72762;SHT30;60886;55.034;73.150;2024-01-16T16:43:06;-19.96;74.63
72762;SHT30;60886;55.034;73.150;2024-01-16T16:46:08;-19.93;74.87
72762;SHT30;60886;55.034;73.150;2024-01-16T16:49:09;-19.92;75.00
72762;SHT30;60886;55.034;73.150;2024-01-16T16:52:11;-19.92;75.00
72762;SHT30;60886;55.034;73.150;2024-01-16T16:55:12;-19.92;75.07
72762;SHT30;60886;55.034;73.150;2024-01-16T16:58:13;-19.90;75.16
72762;SHT30;60886;55.034;73.150;2024-01-16T17:01:16;-19.95;74.95
72762;SHT30;60886;55.034;73.150;2024-01-16T17:04:18;-20.00;74.84
72762;SHT30;60886;55.034;73.150;2024-01-16T17:07:20;-20.00;75.00
72762;SHT30;60886;55.034;73.150;2024-01-16T17:10:22;-20.05;75.20
72762;SHT30;60886;55.034;73.150;2024-01-16T17:13:24;-20.05;75.20
72762;SHT30;60886;55.034;73.150;2024-01-16T17:16:26;-19.99;75.61
72762;SHT30;60886;55.034;73.150;2024-01-16T17:19:29;-20.05;75.30
72762;SHT30;60886;55.034;73.150;2024-01-16T17:22:31;-20.00;75.63
72762;SHT30;60886;55.034;73.150;2024-01-16T17:25:32;-20.06;75.59
72762;SHT30;60886;55.034;73.150;2024-01-16T17:28:33;-20.09;75.54
72762;SHT30;60886;55.034;73.150;2024-01-16T17:31:53;-20.30;75.02
72762;SHT30;60886;55.034;73.150;2024-01-16T17:34:56;-20.37;75.33
72762;SHT30;60886;55.034;73.150;2024-01-16T17:37:57;-20.42;75.45
72762;SHT30;60886;55.034;73.150;2024-01-16T17:41:17;-20.58;75.27
72762;SHT30;60886;55.034;73.150;2024-01-16T17:44:21;-20.64;75.52
72762;SHT30;60886;55.034;73.150;2024-01-16T17:47:23;-20.67;75.00
72762;SHT30;60886;55.034;73.150;2024-01-16T17:50:26;-20.69;75.17
72762;SHT30;60886;55.034;73.150;2024-01-16T17:53:27;-20.67;75.37
72762;SHT30;60886;55.034;73.150;2024-01-16T17:56:36;-20.55;76.15
72762;SHT30;60886;55.034;73.150;2024-01-16T17:59:40;-20.52;76.35
72762;SHT30;60886;55.034;73.150;2024-01-16T18:03:00;-20.52;76.12
72762;SHT30;60886;55.034;73.150;2024-01-16T18:06:01;-20.64;75.47
72762;SHT30;60886;55.034;73.150;2024-01-16T18:09:12;-20.58;75.88
72762;SHT30;60886;55.034;73.150;2024-01-16T18:12:17;-20.68;76.12
72762;SHT30;60886;55.034;73.150;2024-01-16T18:15:18;-20.81;75.85
72762;SHT30;60886;55.034;73.150;2024-01-16T18:18:39;-20.82;75.98
72762;SHT30;60886;55.034;73.150;2024-01-16T18:25:04;-20.78;76.80
72762;SHT30;60886;55.034;73.150;2024-01-16T18:28:07;-20.78;76.64
72762;SHT30;60886;55.034;73.150;2024-01-16T18:31:11;-20.75;76.76
72762;SHT30;60886;55.034;73.150;2024-01-16T18:34:14;-20.75;76.49
72762;SHT30;60886;55.034;73.150;2024-01-16T18:37:21;-20.89;76.21
72762;SHT30;60886;55.034;73.150;2024-01-16T18:40:23;-21.02;76.09
72762;SHT30;60886;55.034;73.150;2024-01-16T18:43:25;-21.06;76.28
72762;SHT30;60886;55.034;73.150;2024-01-16T18:46:36;-21.07;76.63
72762;SHT30;60886;55.034;73.150;2024-01-16T18:49:46;-21.09;76.73
72762;SHT30;60886;55.034;73.150;2024-01-16T18:52:48;-21.00;76.98
72762;SHT30;60886;55.034;73.150;2024-01-16T18:55:50;-20.96;77.20
72762;SHT30;60886;55.034;73.150;2024-01-16T18:58:55;-20.92;77.15
72762;SHT30;60886;55.034;73.150;2024-01-16T19:01:57;-20.95;76.95
72762;SHT30;60886;55.034;73.150;2024-01-16T19:04:58;-20.93;76.96
72762;SHT30;60886;55.034;73.150;2024-01-16T19:07:59;-20.95;77.02
72762;SHT30;60886;55.034;73.150;2024-01-16T19:11:01;-21.07;76.53
72762;SHT30;60886;55.034;73.150;2024-01-16T19:14:03;-20.98;76.69
72762;SHT30;60886;55.034;73.150;2024-01-16T19:17:05;-20.92;77.04
72762;SHT30;60886;55.034;73.150;2024-01-16T19:20:25;-20.89;76.81
72762;SHT30;60886;55.034;73.150;2024-01-16T19:23:27;-20.92;76.73
72762;SHT30;60886;55.034;73.150;2024-01-16T19:26:36;-21.05;76.39
72762;SHT30;60886;55.034;73.150;2024-01-16T19:29:38;-21.13;76.13
72762;SHT30;60886;55.034;73.150;2024-01-16T19:32:40;-21.13;76.38
72762;SHT30;60886;55.034;73.150;2024-01-16T19:35:49;-21.07;76.76
72762;SHT30;60886;55.034;73.150;2024-01-16T19:38:50;-20.92;77.38
72762;SHT30;60886;55.034;73.150;2024-01-16T19:41:52;-20.89;77.28
72762;SHT30;60886;55.034;73.150;2024-01-16T19:44:53;-20.88;76.90
72762;SHT30;60886;55.034;73.150;2024-01-16T19:47:54;-20.88;77.04
72762;SHT30;60886;55.034;73.150;2024-01-16T19:51:14;-20.85;76.98
72762;SHT30;60886;55.034;73.150;2024-01-16T19:54:15;-20.89;76.69
72762;SHT30;60886;55.034;73.150;2024-01-16T19:57:17;-20.86;76.91
72762;SHT30;60886;55.034;73.150;2024-01-16T20:00:19;-20.82;77.12
72762;SHT30;60886;55.034;73.150;2024-01-16T20:03:38;-20.83;76.95
72762;SHT30;60886;55.034;73.150;2024-01-16T20:06:44;-20.88;76.81
72762;SHT30;60886;55.034;73.150;2024-01-16T20:09:51;-20.89;76.71
72762;SHT30;60886;55.034;73.150;2024-01-16T20:12:52;-20.86;76.88